Lewis, KS (67552)

5:36 AM CDT on July 25, 2016 (GMT -0500)
Backyard Weather | | Change Station

Elev 2168 ft 37.93 °N, 99.41 °W | Updated 9 seconds ago

Light Rain
Light Rain
68.1 °F
Feels Like 68.1 °F
N
1.0
Wind Variable Wind from North
Gusts 16.0 mph

Today
High -- | Low -- °F
--% Chance of Precip.
Yesterday
High -- | Low -- °F
Precip. -- in
Pressure 30.07 in
Visibility 10.0 miles
Clouds Scattered Clouds 6000 ft
Mostly Cloudy 11000 ft
Dew Point 66 °F
Humidity 94%
Rainfall 0.45 in
Snow Depth Not available.
6:34 AM 8:51 PM
Waning Gibbous, 67% visible
METAR KPTT 251015Z AUTO 35007KT 10SM -RA SCT060 BKN110 19/18 A3007 RMK AO2 LTG DSNT N THRU SE P0001 T01900181
Pressure 30.07 in
Visibility 10.0 miles
Clouds Scattered Clouds 6000 ft
Mostly Cloudy 11000 ft
Dew Point 66 °F
Humidity 94%
Rainfall 0.45 in
Snow Depth Not available.
6:34 AM 8:51 PM
Waning Gibbous, 67% visible
METAR KPTT 251015Z AUTO 35007KT 10SM -RA SCT060 BKN110 19/18 A3007 RMK AO2 LTG DSNT N THRU SE P0001 T01900181

10-Day Weather Forecast

Almanac

Astronomy

Jul. 25, 2016 Rise Set
Actual Time
Civil Twilight
Nautical Twilight
Astronomical Twilight
Moon
Length of Visible Light
Length of Day
Tomorrow will be .
, % of the Moon is Illuminated

Today's Extremes

State Highs State Lows

Community

WunderPhotos

Upload Photos

1,927,290 photos uploaded!

WunderBlog® & News

Nearby

Air Quality

  Air Quality AQ Index Pollutant
Not available.

Snow Depth

Station Depth Elevation

Earthquake Activity

City Distance Mag. Time & Date
Minimum magnitude displayed is 2.5.

Coastal Water Temperatures

Place Temperature

Stations

Nearby Weather Stations

Station Location Temp. Windchill Dew Point Humidity Wind Precip. Elev Updated Type
                   

Watches & Warnings

There are currently no watches in effect.